createdAt,value
2019-01-18T00:00:23.151Z,1.70
2019-01-18T00:01:23.146Z,1.70
2019-01-18T00:02:23.110Z,1.80
2019-01-18T00:03:23.119Z,1.70
2019-01-18T00:04:23.127Z,1.80
2019-01-18T00:05:23.120Z,1.70
2019-01-18T00:06:23.121Z,1.60
2019-01-18T00:07:23.083Z,1.70
2019-01-18T00:08:23.062Z,1.60
2019-01-18T00:09:23.030Z,1.80
2019-01-18T00:10:23.014Z,1.90
2019-01-18T00:11:23.036Z,1.80
2019-01-18T00:12:23.006Z,1.70
2019-01-18T00:13:23.018Z,1.70
2019-01-18T00:14:23.012Z,1.90
2019-01-18T00:15:22.967Z,1.70
2019-01-18T00:16:23.007Z,1.70
2019-01-18T00:17:22.988Z,1.80
2019-01-18T00:18:22.961Z,1.80
2019-01-18T00:19:22.939Z,1.80
2019-01-18T00:20:22.976Z,1.50
2019-01-18T00:21:22.928Z,1.70
2019-01-18T00:22:22.951Z,1.70
2019-01-18T00:23:22.887Z,1.80
2019-01-18T00:24:22.885Z,1.90
2019-01-18T00:25:22.873Z,1.80
2019-01-18T00:26:22.849Z,1.80
2019-01-18T00:27:22.890Z,1.80
2019-01-18T00:28:22.826Z,1.90
2019-01-18T00:29:22.805Z,1.80
2019-01-18T00:30:22.921Z,2.00
2019-01-18T00:31:22.802Z,1.80
2019-01-18T00:32:22.845Z,1.90
2019-01-18T00:33:22.770Z,1.90
2019-01-18T00:34:22.746Z,2.10
2019-01-18T00:35:22.745Z,1.90
2019-01-18T00:36:22.733Z,2.00
2019-01-18T00:37:22.755Z,1.90
2019-01-18T00:38:22.757Z,2.00
2019-01-18T00:39:22.693Z,2.00
2019-01-18T00:40:22.725Z,2.00
2019-01-18T00:41:22.752Z,1.90
2019-01-18T00:42:22.662Z,1.80
2019-01-18T00:43:22.720Z,1.90
2019-01-18T00:44:22.663Z,1.70
2019-01-18T00:45:22.673Z,1.90
2019-01-18T00:46:22.632Z,1.90
2019-01-18T00:47:22.646Z,1.70
2019-01-18T00:48:22.654Z,1.90
2019-01-18T00:49:22.617Z,1.90
2019-01-18T00:50:22.599Z,1.80
2019-01-18T00:51:22.579Z,1.80
2019-01-18T00:52:22.547Z,2.00
2019-01-18T00:53:22.561Z,1.80
2019-01-18T00:54:22.570Z,2.10
2019-01-18T00:55:22.551Z,1.80
2019-01-18T00:56:22.565Z,1.80
2019-01-18T00:57:22.594Z,2.00
2019-01-18T00:58:22.515Z,1.80
2019-01-18T00:59:22.526Z,1.70
2019-01-18T01:00:22.489Z,1.90
2019-01-18T01:01:22.525Z,1.60
2019-01-18T01:02:22.454Z,1.70
2019-01-18T01:03:22.445Z,1.90
2019-01-18T01:04:22.466Z,1.60
2019-01-18T01:05:22.454Z,1.80
2019-01-18T01:06:22.446Z,2.00
2019-01-18T01:07:22.414Z,1.70
2019-01-18T01:08:22.393Z,1.90
2019-01-18T01:09:22.402Z,1.70
2019-01-18T01:10:22.404Z,1.60
2019-01-18T01:11:22.344Z,1.60
2019-01-18T01:12:22.315Z,1.70
2019-01-18T01:13:22.356Z,1.70
2019-01-18T01:14:22.326Z,1.60
2019-01-18T01:15:22.356Z,1.70
2019-01-18T01:16:22.302Z,1.70
2019-01-18T01:17:22.368Z,1.80
2019-01-18T01:18:22.315Z,1.70
2019-01-18T01:19:22.324Z,1.60
2019-01-18T01:20:22.265Z,1.70
2019-01-18T01:21:22.254Z,1.60
2019-01-18T01:22:22.248Z,1.90
2019-01-18T01:23:22.259Z,1.60
2019-01-18T01:24:22.246Z,1.60
2019-01-18T01:25:22.254Z,1.70
2019-01-18T01:26:22.224Z,1.80
2019-01-18T01:27:22.201Z,1.60
2019-01-18T01:28:22.167Z,1.90
2019-01-18T01:29:22.144Z,1.70
2019-01-18T01:30:22.201Z,1.70
2019-01-18T01:31:22.162Z,1.60
2019-01-18T01:32:22.114Z,1.60
2019-01-18T01:33:22.171Z,1.50
2019-01-18T01:34:22.121Z,1.70
2019-01-18T01:35:22.105Z,1.80
2019-01-18T01:36:22.107Z,1.60
2019-01-18T01:37:22.093Z,1.80
2019-01-18T01:38:22.116Z,1.90
2019-01-18T01:39:22.090Z,1.50
2019-01-18T01:40:22.077Z,1.40
2019-01-18T01:41:22.062Z,1.50
2019-01-18T01:42:22.009Z,1.70
2019-01-18T01:43:22.035Z,1.50
2019-01-18T01:44:22.005Z,1.70
2019-01-18T01:45:21.994Z,1.60
2019-01-18T01:46:22.051Z,1.60
2019-01-18T01:47:21.942Z,1.70
2019-01-18T01:48:21.983Z,1.60
2019-01-18T01:49:21.987Z,1.60
2019-01-18T01:50:21.951Z,1.70
2019-01-18T01:51:21.965Z,1.80
2019-01-18T01:52:21.979Z,1.50
2019-01-18T01:53:21.897Z,1.60
2019-01-18T01:54:21.924Z,1.50
2019-01-18T01:55:21.893Z,1.60
2019-01-18T01:56:21.910Z,1.70
2019-01-18T01:57:21.918Z,1.60
2019-01-18T01:58:21.844Z,1.60
2019-01-18T01:59:21.877Z,1.60
2019-01-18T02:00:21.894Z,1.60
2019-01-18T02:01:21.840Z,1.70
2019-01-18T02:02:21.863Z,1.50
2019-01-18T02:03:21.818Z,1.70
2019-01-18T02:04:21.776Z,1.70
2019-01-18T02:05:21.791Z,1.80
2019-01-18T02:06:21.776Z,1.70
2019-01-18T02:07:21.816Z,1.70
2019-01-18T02:08:21.782Z,1.70
2019-01-18T02:09:21.749Z,1.70
2019-01-18T02:10:21.754Z,1.80
2019-01-18T02:11:21.756Z,1.70
2019-01-18T02:12:21.735Z,1.60
2019-01-18T02:13:21.732Z,1.80
2019-01-18T02:14:21.723Z,1.70
2019-01-18T02:15:21.701Z,1.80
2019-01-18T02:16:21.660Z,1.70
2019-01-18T02:17:21.670Z,1.80
2019-01-18T02:18:21.641Z,1.60
2019-01-18T02:19:21.638Z,1.90
2019-01-18T02:20:21.610Z,1.70
2019-01-18T02:21:21.615Z,1.80
2019-01-18T02:22:21.628Z,1.60
2019-01-18T02:23:21.615Z,1.70
2019-01-18T02:24:21.591Z,1.60
2019-01-18T02:25:21.581Z,1.60
2019-01-18T02:26:21.567Z,2.00
2019-01-18T02:27:21.519Z,1.70
2019-01-18T02:28:21.551Z,1.60
2019-01-18T02:29:21.530Z,1.60
2019-01-18T02:30:21.520Z,1.80
2019-01-18T02:31:21.542Z,1.70
2019-01-18T02:32:21.525Z,1.60
2019-01-18T02:33:21.485Z,1.60
2019-01-18T02:34:21.546Z,1.60
2019-01-18T02:35:21.457Z,1.70
2019-01-18T02:36:21.456Z,1.70
2019-01-18T02:37:21.435Z,1.70
2019-01-18T02:38:21.463Z,1.70
2019-01-18T02:39:21.478Z,1.60
2019-01-18T02:40:21.438Z,1.60
2019-01-18T02:41:21.412Z,1.80
2019-01-18T02:42:21.408Z,1.70
2019-01-18T02:43:21.411Z,1.70
2019-01-18T02:44:21.373Z,1.80
2019-01-18T02:45:21.408Z,1.90
2019-01-18T02:46:21.379Z,1.90
2019-01-18T02:47:21.337Z,2.00
2019-01-18T02:48:21.348Z,1.60
2019-01-18T02:49:21.354Z,1.60
2019-01-18T02:50:21.316Z,1.70
2019-01-18T02:51:21.326Z,2.00
2019-01-18T02:52:21.284Z,1.80
2019-01-18T02:53:21.279Z,1.80
2019-01-18T02:54:21.230Z,2.00
2019-01-18T02:55:28.508Z,1.90
2019-01-18T02:56:22.261Z,2.20
2019-01-18T02:57:21.238Z,2.40
2019-01-18T02:58:21.243Z,2.00
2019-01-18T02:59:21.195Z,2.10
2019-01-18T03:00:21.176Z,2.20
2019-01-18T03:01:21.206Z,2.00
2019-01-18T03:02:21.208Z,1.80
2019-01-18T03:03:21.206Z,1.80
2019-01-18T03:04:21.202Z,2.00
2019-01-18T03:05:21.151Z,2.00
2019-01-18T03:06:21.174Z,2.10
2019-01-18T03:07:21.173Z,2.10
2019-01-18T03:08:21.128Z,1.90
2019-01-18T03:09:21.071Z,1.70
2019-01-18T03:10:21.126Z,1.90
2019-01-18T03:11:21.108Z,1.80
2019-01-18T03:12:21.102Z,1.80
2019-01-18T03:13:21.052Z,2.00
2019-01-18T03:14:21.054Z,1.90
2019-01-18T03:15:21.018Z,1.90
2019-01-18T03:16:21.073Z,1.80
2019-01-18T03:17:21.019Z,1.70
2019-01-18T03:18:20.999Z,1.60
2019-01-18T03:19:20.984Z,1.80
2019-01-18T03:20:20.988Z,2.00
2019-01-18T03:21:20.938Z,2.10
2019-01-18T03:22:21.013Z,2.20
2019-01-18T03:23:20.928Z,2.10
2019-01-18T03:24:21.003Z,2.10
2019-01-18T03:25:20.936Z,2.20
2019-01-18T03:26:20.939Z,2.60
2019-01-18T03:27:20.925Z,2.70
2019-01-18T03:28:20.898Z,2.30
2019-01-18T03:29:20.860Z,2.50
2019-01-18T03:30:21.269Z,1.80
2019-01-18T03:31:20.850Z,1.90
2019-01-18T03:32:20.903Z,1.60
2019-01-18T03:33:20.844Z,1.50
2019-01-18T03:34:20.815Z,1.30
2019-01-18T03:35:20.799Z,1.30
2019-01-18T03:36:20.842Z,1.20
2019-01-18T03:37:20.822Z,1.10
2019-01-18T03:38:20.775Z,1.00
2019-01-18T03:39:20.794Z,0.90
2019-01-18T03:40:20.765Z,0.90
2019-01-18T03:41:20.742Z,0.90
2019-01-18T03:42:20.806Z,0.80
2019-01-18T03:43:20.716Z,0.90
2019-01-18T03:44:20.725Z,0.90
2019-01-18T03:45:20.750Z,0.80
2019-01-18T03:46:20.692Z,0.80
2019-01-18T03:47:20.714Z,0.90
2019-01-18T03:48:20.711Z,1.00
2019-01-18T03:49:20.686Z,1.00
2019-01-18T03:50:20.635Z,0.90
2019-01-18T03:51:20.642Z,1.10
2019-01-18T03:52:20.655Z,1.10
2019-01-18T03:53:20.657Z,1.00
2019-01-18T03:54:20.628Z,1.10
2019-01-18T03:55:20.643Z,1.00
2019-01-18T03:56:20.597Z,1.10
2019-01-18T03:57:20.586Z,1.20
2019-01-18T03:58:20.567Z,1.20
2019-01-18T03:59:20.524Z,1.30
2019-01-18T04:00:25.675Z,1.30
2019-01-18T04:01:21.526Z,1.10
2019-01-18T04:02:20.516Z,1.20
2019-01-18T04:03:20.510Z,1.10
2019-01-18T04:04:20.496Z,1.10
2019-01-18T04:05:20.493Z,1.10
2019-01-18T04:06:20.521Z,1.10
2019-01-18T04:07:20.463Z,1.20
2019-01-18T04:08:20.483Z,1.20
2019-01-18T04:09:20.461Z,1.20
2019-01-18T04:10:20.457Z,1.10
2019-01-18T04:11:20.417Z,1.10
2019-01-18T04:12:20.415Z,1.10
2019-01-18T04:13:20.382Z,1.10
2019-01-18T04:14:20.427Z,1.10
2019-01-18T04:15:20.393Z,1.10
2019-01-18T04:16:20.397Z,1.10
2019-01-18T04:17:20.404Z,1.10
2019-01-18T04:18:20.333Z,1.20
2019-01-18T04:19:20.328Z,1.20
2019-01-18T04:20:20.358Z,1.40
2019-01-18T04:21:20.339Z,1.30
2019-01-18T04:22:20.268Z,1.20
2019-01-18T04:23:20.293Z,1.50
2019-01-18T04:24:20.318Z,1.50
2019-01-18T04:25:20.323Z,1.40
2019-01-18T04:26:20.302Z,1.40
2019-01-18T04:27:20.233Z,1.50
2019-01-18T04:28:20.257Z,1.60
2019-01-18T04:29:20.222Z,1.80
2019-01-18T04:30:20.221Z,1.80
2019-01-18T04:31:20.217Z,1.80
2019-01-18T04:32:20.224Z,1.90
2019-01-18T04:33:20.211Z,2.00
2019-01-18T04:34:20.140Z,2.00
2019-01-18T04:35:20.206Z,2.10
2019-01-18T04:36:20.163Z,2.00
2019-01-18T04:37:20.168Z,2.00
2019-01-18T04:38:20.131Z,1.90
2019-01-18T04:39:20.120Z,2.10
2019-01-18T04:40:20.118Z,2.10
2019-01-18T04:41:20.118Z,2.20
2019-01-18T04:42:20.068Z,2.30
2019-01-18T04:43:20.074Z,2.20
2019-01-18T04:44:20.088Z,2.10
2019-01-18T04:45:20.045Z,2.30
2019-01-18T04:46:20.038Z,2.00
2019-01-18T04:47:20.033Z,2.10
2019-01-18T04:48:20.070Z,2.10
2019-01-18T04:49:20.029Z,2.30
2019-01-18T04:50:20.009Z,2.30
2019-01-18T04:51:20.006Z,2.00
2019-01-18T04:52:19.991Z,2.20
2019-01-18T04:53:19.958Z,2.40
2019-01-18T04:54:19.944Z,2.20
2019-01-18T04:55:19.932Z,2.40
2019-01-18T04:56:19.980Z,2.60
2019-01-18T04:57:19.927Z,2.30
2019-01-18T04:58:19.884Z,2.40
2019-01-18T04:59:19.907Z,2.30
2019-01-18T05:00:19.914Z,2.40
2019-01-18T05:01:19.902Z,2.20
2019-01-18T05:02:19.864Z,2.30
2019-01-18T05:03:19.836Z,2.20
2019-01-18T05:04:19.862Z,2.30
2019-01-18T05:05:19.849Z,2.10
2019-01-18T05:06:19.834Z,2.40
2019-01-18T05:07:19.830Z,2.40
2019-01-18T05:08:19.840Z,2.40
2019-01-18T05:09:19.764Z,2.50
2019-01-18T05:10:19.773Z,2.60
2019-01-18T05:11:19.806Z,2.50
2019-01-18T05:12:19.730Z,2.60
2019-01-18T05:13:19.774Z,2.70
2019-01-18T05:14:19.735Z,2.50
2019-01-18T05:15:19.693Z,2.60
2019-01-18T05:16:19.728Z,2.80
2019-01-18T05:17:19.727Z,2.90
2019-01-18T05:18:19.674Z,2.90
2019-01-18T05:19:19.705Z,2.80
2019-01-18T05:20:19.675Z,2.90
2019-01-18T05:21:19.656Z,2.90
2019-01-18T05:22:19.692Z,2.90
2019-01-18T05:23:19.651Z,2.70
2019-01-18T05:24:19.632Z,3.10
2019-01-18T05:25:19.649Z,3.40
2019-01-18T05:26:19.591Z,3.10
2019-01-18T05:27:19.640Z,3.00
2019-01-18T05:28:19.584Z,3.10
2019-01-18T05:29:19.596Z,3.20
2019-01-18T05:30:19.613Z,3.00
2019-01-18T05:31:19.551Z,3.30
2019-01-18T05:32:19.585Z,3.10
2019-01-18T05:33:19.536Z,3.50
2019-01-18T05:34:19.532Z,3.60
2019-01-18T05:35:19.502Z,3.50
2019-01-18T05:36:19.484Z,4.00
2019-01-18T05:37:19.499Z,4.30
2019-01-18T05:38:19.493Z,4.60
2019-01-18T05:39:19.481Z,4.60
2019-01-18T05:40:19.476Z,4.50
2019-01-18T05:41:19.433Z,4.70
2019-01-18T05:42:19.481Z,4.90
2019-01-18T05:43:19.438Z,4.80
2019-01-18T05:44:19.394Z,4.60
2019-01-18T05:45:19.386Z,4.80
2019-01-18T05:46:19.397Z,4.80
2019-01-18T05:47:19.364Z,4.40
2019-01-18T05:48:19.415Z,4.70
2019-01-18T05:49:19.378Z,4.50
2019-01-18T05:50:19.316Z,4.90
2019-01-18T05:51:19.339Z,4.80
2019-01-18T05:52:19.315Z,4.50
2019-01-18T05:53:19.336Z,4.60
2019-01-18T05:54:19.333Z,5.00
2019-01-18T05:55:19.303Z,4.80
2019-01-18T05:56:19.278Z,4.60
2019-01-18T05:57:19.299Z,4.70
2019-01-18T05:58:19.264Z,4.90
2019-01-18T05:59:19.263Z,4.80
2019-01-18T06:00:19.234Z,4.80
2019-01-18T06:01:19.245Z,4.70
2019-01-18T06:02:19.196Z,4.60
2019-01-18T06:03:19.202Z,4.50
2019-01-18T06:04:19.186Z,4.90
2019-01-18T06:05:19.161Z,4.40
2019-01-18T06:06:19.185Z,4.10
2019-01-18T06:07:19.153Z,4.20
2019-01-18T06:08:19.119Z,4.20
2019-01-18T06:09:19.185Z,4.10
2019-01-18T06:10:19.129Z,3.80
2019-01-18T06:11:19.244Z,3.70
2019-01-18T06:12:19.164Z,3.50
2019-01-18T06:13:19.089Z,3.80
2019-01-18T06:14:19.097Z,3.90
2019-01-18T06:15:19.138Z,3.70
2019-01-18T06:16:19.057Z,3.80
2019-01-18T06:17:19.064Z,3.70
2019-01-18T06:18:19.016Z,3.40
2019-01-18T06:19:19.038Z,3.30
2019-01-18T06:20:19.084Z,3.20
2019-01-18T06:21:19.065Z,3.30
2019-01-18T06:22:19.012Z,3.10
2019-01-18T06:23:18.968Z,3.00
2019-01-18T06:24:18.972Z,3.00
2019-01-18T06:25:19.040Z,3.30
2019-01-18T06:26:18.957Z,3.00
2019-01-18T06:27:18.942Z,3.00
2019-01-18T06:28:18.922Z,3.10
2019-01-18T06:29:18.960Z,2.90
2019-01-18T06:30:18.926Z,3.00
2019-01-18T06:31:18.908Z,2.80
2019-01-18T06:32:18.917Z,3.00
2019-01-18T06:33:18.876Z,2.80
2019-01-18T06:34:18.886Z,2.90
2019-01-18T06:35:18.894Z,2.70
2019-01-18T06:36:18.873Z,2.60
2019-01-18T06:37:18.845Z,2.90
2019-01-18T06:38:18.843Z,2.80
2019-01-18T06:39:18.818Z,2.60
2019-01-18T06:40:18.819Z,2.40
2019-01-18T06:41:18.831Z,2.50
2019-01-18T06:42:18.784Z,2.50
2019-01-18T06:43:18.800Z,2.50
2019-01-18T06:44:18.791Z,2.60
2019-01-18T06:45:18.757Z,2.70
2019-01-18T06:46:18.779Z,2.30
2019-01-18T06:47:18.784Z,2.60
2019-01-18T06:48:18.783Z,2.30
2019-01-18T06:49:18.712Z,2.40
2019-01-18T06:50:19.553Z,2.60
2019-01-18T06:51:19.100Z,2.60
2019-01-18T06:52:20.042Z,2.60
2019-01-18T06:53:18.684Z,2.60
2019-01-18T06:54:18.647Z,2.60
2019-01-18T06:55:18.637Z,2.30
2019-01-18T06:56:18.649Z,2.40
2019-01-18T06:57:18.635Z,2.60
2019-01-18T06:58:18.605Z,2.40
2019-01-18T06:59:18.569Z,2.50
2019-01-18T07:00:18.696Z,2.70
2019-01-18T07:01:18.550Z,2.40
2019-01-18T07:02:18.576Z,2.30
2019-01-18T07:03:18.542Z,2.80
2019-01-18T07:04:18.522Z,2.70
2019-01-18T07:05:18.651Z,2.50
2019-01-18T07:06:18.610Z,2.30
2019-01-18T07:07:18.504Z,2.70
2019-01-18T07:08:18.561Z,2.40
2019-01-18T07:09:18.510Z,2.50
2019-01-18T07:10:20.843Z,2.60
2019-01-18T07:11:18.531Z,2.60
2019-01-18T07:12:18.511Z,2.70
2019-01-18T07:13:18.444Z,2.60
2019-01-18T07:14:18.513Z,2.60
2019-01-18T07:15:18.468Z,2.70
2019-01-18T07:16:18.421Z,3.20
2019-01-18T07:17:18.410Z,3.10
2019-01-18T07:18:18.392Z,2.80
2019-01-18T07:19:18.382Z,2.90
2019-01-18T07:20:18.483Z,3.20
2019-01-18T07:21:18.338Z,3.20
2019-01-18T07:22:18.328Z,3.20
2019-01-18T07:23:18.361Z,3.10
2019-01-18T07:24:18.316Z,3.30
2019-01-18T07:25:18.344Z,2.90
2019-01-18T07:26:18.361Z,3.10
2019-01-18T07:27:18.273Z,3.20
2019-01-18T07:28:18.340Z,3.20
2019-01-18T07:29:18.291Z,3.10
2019-01-18T07:30:18.317Z,3.30
2019-01-18T07:31:18.287Z,2.90
2019-01-18T07:32:18.250Z,3.10
2019-01-18T07:33:18.255Z,3.50
2019-01-18T07:34:18.229Z,3.00
2019-01-18T07:35:18.273Z,3.40
2019-01-18T07:36:18.233Z,3.20
2019-01-18T07:37:18.351Z,3.50
2019-01-18T07:38:18.289Z,3.60
2019-01-18T07:39:22.313Z,3.20
2019-01-18T07:40:18.288Z,3.20
2019-01-18T07:41:18.211Z,3.60
2019-01-18T07:42:18.317Z,3.40
2019-01-18T07:43:18.186Z,3.80
2019-01-18T07:44:18.325Z,3.50
2019-01-18T07:45:19.387Z,3.30
2019-01-18T07:46:19.428Z,3.40
2019-01-18T07:47:18.404Z,3.50
2019-01-18T07:48:18.247Z,3.50
2019-01-18T07:49:18.266Z,3.70
2019-01-18T07:50:20.082Z,3.50
2019-01-18T07:51:18.232Z,3.30
2019-01-18T07:52:18.169Z,3.40
2019-01-18T07:53:18.047Z,3.40
2019-01-18T07:54:18.011Z,3.50
2019-01-18T07:55:18.149Z,3.30
2019-01-18T07:56:18.184Z,3.20
2019-01-18T07:57:18.032Z,3.40
2019-01-18T07:58:18.129Z,3.40
2019-01-18T07:59:18.125Z,3.30
2019-01-18T08:00:18.107Z,3.30
2019-01-18T08:01:22.035Z,3.30
2019-01-18T08:02:18.073Z,3.50
2019-01-18T08:03:17.958Z,3.50
2019-01-18T08:04:17.969Z,3.30
2019-01-18T08:05:17.920Z,3.60
2019-01-18T08:06:18.004Z,3.40
2019-01-18T08:07:17.968Z,3.50
2019-01-18T08:08:17.883Z,3.00
2019-01-18T08:09:17.834Z,3.30
2019-01-18T08:10:17.847Z,3.20
2019-01-18T08:11:17.946Z,3.10
2019-01-18T08:12:18.727Z,3.20
2019-01-18T08:13:17.865Z,3.10
2019-01-18T08:14:18.017Z,3.40
2019-01-18T08:15:17.968Z,3.20
2019-01-18T08:16:17.889Z,3.40
2019-01-18T08:17:18.040Z,3.30
2019-01-18T08:18:18.002Z,3.30
2019-01-18T08:19:19.549Z,3.10
2019-01-18T08:20:17.820Z,3.10
2019-01-18T08:21:17.821Z,3.00
2019-01-18T08:22:17.923Z,3.40
2019-01-18T08:23:17.837Z,3.00
2019-01-18T08:24:18.177Z,3.00
2019-01-18T08:25:17.865Z,3.00
2019-01-18T08:26:17.660Z,3.10
2019-01-18T08:27:17.841Z,2.80
2019-01-18T08:28:17.756Z,3.00
2019-01-18T08:29:17.701Z,2.90
2019-01-18T08:30:17.675Z,2.80
2019-01-18T08:31:17.600Z,3.00
2019-01-18T08:32:17.732Z,2.90
2019-01-18T08:33:17.748Z,3.10
2019-01-18T08:34:17.734Z,2.90
2019-01-18T08:35:17.914Z,2.70
2019-01-18T08:36:17.665Z,2.50
2019-01-18T08:37:17.584Z,2.50
2019-01-18T08:38:17.591Z,2.40
2019-01-18T08:39:17.601Z,2.50
2019-01-18T08:40:17.612Z,2.40
2019-01-18T08:41:17.652Z,2.50
2019-01-18T08:42:17.645Z,2.10
2019-01-18T08:43:17.483Z,2.20
2019-01-18T08:44:17.641Z,2.60
2019-01-18T08:45:17.577Z,2.40
2019-01-18T08:46:17.597Z,2.30
2019-01-18T08:47:17.461Z,1.90
2019-01-18T08:48:17.438Z,2.10
2019-01-18T08:49:17.422Z,2.10
2019-01-18T08:50:17.673Z,2.20
2019-01-18T08:51:17.535Z,2.00
2019-01-18T08:52:17.449Z,1.90
2019-01-18T08:53:17.419Z,2.00
2019-01-18T08:54:17.366Z,2.10
2019-01-18T08:55:17.346Z,2.20
2019-01-18T08:56:17.403Z,1.90
2019-01-18T08:57:17.405Z,1.90
2019-01-18T08:58:17.342Z,1.90
2019-01-18T08:59:17.384Z,2.00
2019-01-18T09:00:17.386Z,1.80
2019-01-18T09:01:17.353Z,1.70
2019-01-18T09:02:17.335Z,1.80
2019-01-18T09:03:17.255Z,1.60
2019-01-18T09:04:17.211Z,1.80
2019-01-18T09:05:17.263Z,1.80
2019-01-18T09:06:17.334Z,1.80
2019-01-18T09:07:17.271Z,2.00
2019-01-18T09:08:17.220Z,2.00
2019-01-18T09:09:17.178Z,2.10
2019-01-18T09:10:17.130Z,1.90
2019-01-18T09:11:17.251Z,1.90
2019-01-18T09:12:17.204Z,1.80
2019-01-18T09:13:18.426Z,1.90
2019-01-18T09:14:19.495Z,2.20
2019-01-18T09:15:17.153Z,2.00
2019-01-18T09:16:17.213Z,2.10
2019-01-18T09:17:17.405Z,2.10
2019-01-18T09:18:17.139Z,2.10
2019-01-18T09:19:17.128Z,2.30
2019-01-18T09:20:17.255Z,2.30
2019-01-18T09:21:17.104Z,2.20
2019-01-18T09:22:17.070Z,2.20
2019-01-18T09:23:17.081Z,2.40
2019-01-18T09:24:17.020Z,2.20
2019-01-18T09:25:16.979Z,2.20
2019-01-18T09:26:17.020Z,2.00
2019-01-18T09:27:17.024Z,2.20
2019-01-18T09:28:17.037Z,2.20
2019-01-18T09:29:17.142Z,2.30
2019-01-18T09:30:16.990Z,2.00
2019-01-18T09:31:17.032Z,2.10
2019-01-18T09:32:16.938Z,2.30
2019-01-18T09:33:17.009Z,2.40
2019-01-18T09:34:16.946Z,2.30
2019-01-18T09:35:16.906Z,2.00
2019-01-18T09:36:16.928Z,2.10
2019-01-18T09:37:16.889Z,2.20
2019-01-18T09:38:17.975Z,2.30
2019-01-18T09:39:16.897Z,2.20
2019-01-18T09:40:16.893Z,2.20
2019-01-18T09:41:16.963Z,2.30
2019-01-18T09:42:16.828Z,2.50
2019-01-18T09:43:16.844Z,2.30
2019-01-18T09:44:16.859Z,2.30
2019-01-18T09:45:16.921Z,2.10
2019-01-18T09:46:16.779Z,2.20
2019-01-18T09:47:16.802Z,2.30
2019-01-18T09:48:16.778Z,2.40
2019-01-18T09:49:16.785Z,2.30
2019-01-18T09:50:16.743Z,2.30
2019-01-18T09:51:16.724Z,2.40
2019-01-18T09:52:16.702Z,2.30
2019-01-18T09:53:16.698Z,2.40
2019-01-18T09:54:16.722Z,2.30
2019-01-18T09:55:16.709Z,2.40
2019-01-18T09:56:16.799Z,2.70
2019-01-18T09:57:16.752Z,2.40
2019-01-18T09:58:16.720Z,2.40
2019-01-18T09:59:16.711Z,2.40
2019-01-18T10:00:16.710Z,2.70
2019-01-18T10:01:16.747Z,2.80
2019-01-18T10:02:16.655Z,2.80
2019-01-18T10:03:16.693Z,2.60
2019-01-18T10:04:16.795Z,2.60
2019-01-18T10:05:16.630Z,2.30
2019-01-18T10:06:16.729Z,2.60
2019-01-18T10:07:16.600Z,2.70
2019-01-18T10:08:16.604Z,2.70
2019-01-18T10:09:16.642Z,2.70
2019-01-18T10:10:16.661Z,2.80
2019-01-18T10:11:16.539Z,3.10
2019-01-18T10:12:16.550Z,3.60
2019-01-18T10:13:16.491Z,3.40
2019-01-18T10:14:16.565Z,3.90
2019-01-18T10:15:16.540Z,4.00
2019-01-18T10:16:16.516Z,3.40
2019-01-18T10:17:16.515Z,3.30
2019-01-18T10:18:16.456Z,3.20
2019-01-18T10:19:16.490Z,3.30
2019-01-18T10:20:16.444Z,3.00
2019-01-18T10:21:16.447Z,2.90
2019-01-18T10:22:16.406Z,2.90
2019-01-18T10:23:16.443Z,2.80
2019-01-18T10:24:16.428Z,2.70
2019-01-18T10:25:16.473Z,2.60
2019-01-18T10:26:16.415Z,2.60
2019-01-18T10:27:16.463Z,2.80
2019-01-18T10:28:16.394Z,3.10
2019-01-18T10:29:16.412Z,2.70
2019-01-18T10:30:16.446Z,2.40
2019-01-18T10:31:16.395Z,2.70
2019-01-18T10:32:16.316Z,2.80
2019-01-18T10:33:16.335Z,2.60
2019-01-18T10:34:16.347Z,2.60
2019-01-18T10:35:16.304Z,2.40
2019-01-18T10:36:16.267Z,2.50
2019-01-18T10:37:16.215Z,2.40
2019-01-18T10:38:16.275Z,2.40
2019-01-18T10:39:16.177Z,2.30
2019-01-18T10:40:16.190Z,2.50
2019-01-18T10:41:16.184Z,2.50
2019-01-18T10:42:16.187Z,2.60
2019-01-18T10:43:16.192Z,2.40
2019-01-18T10:44:16.152Z,2.50
2019-01-18T10:45:16.163Z,2.20
2019-01-18T10:46:16.166Z,2.40
2019-01-18T10:47:16.120Z,2.40
2019-01-18T10:48:16.149Z,2.20
2019-01-18T10:49:16.090Z,2.60
2019-01-18T10:50:16.098Z,2.30
2019-01-18T10:51:16.138Z,2.30
2019-01-18T10:52:16.092Z,2.40
2019-01-18T10:53:16.126Z,2.30
2019-01-18T10:54:16.063Z,2.60
2019-01-18T10:55:16.035Z,2.30
2019-01-18T10:56:16.493Z,2.10
2019-01-18T10:57:16.035Z,2.20
2019-01-18T10:58:15.997Z,2.50
2019-01-18T10:59:16.027Z,2.10
2019-01-18T11:00:16.000Z,2.20
2019-01-18T11:01:15.990Z,2.10
2019-01-18T11:02:15.998Z,2.20
2019-01-18T11:03:15.982Z,2.10
2019-01-18T11:04:15.920Z,2.10
2019-01-18T11:05:15.920Z,2.00
2019-01-18T11:06:15.960Z,2.30
2019-01-18T11:07:15.937Z,2.10
2019-01-18T11:08:17.579Z,1.90
2019-01-18T11:09:15.867Z,1.90
2019-01-18T11:10:15.896Z,1.70
2019-01-18T11:11:15.889Z,1.50
2019-01-18T11:12:15.829Z,1.50
2019-01-18T11:13:15.873Z,1.60
2019-01-18T11:14:15.851Z,1.50
2019-01-18T11:15:15.826Z,1.90
2019-01-18T11:16:16.039Z,1.70
2019-01-18T11:17:15.832Z,2.00
2019-01-18T11:18:15.817Z,1.90
2019-01-18T11:19:15.836Z,1.50
2019-01-18T11:20:15.841Z,1.80
2019-01-18T11:21:15.774Z,1.70
2019-01-18T11:22:16.502Z,1.70
2019-01-18T11:23:15.752Z,1.80
2019-01-18T11:24:15.720Z,1.70
2019-01-18T11:25:15.765Z,1.80
2019-01-18T11:26:15.755Z,1.80
2019-01-18T11:27:15.727Z,1.90
2019-01-18T11:28:15.716Z,1.80
2019-01-18T11:29:15.693Z,1.70
2019-01-18T11:30:15.642Z,1.60
2019-01-18T11:31:15.659Z,1.90
2019-01-18T11:32:18.226Z,1.80
2019-01-18T11:33:18.434Z,1.90
2019-01-18T11:34:15.632Z,2.20
2019-01-18T11:35:15.951Z,2.10
2019-01-18T11:36:15.833Z,2.00
2019-01-18T11:37:16.133Z,2.20
2019-01-18T11:38:16.369Z,2.30
2019-01-18T11:39:15.884Z,2.30
2019-01-18T11:40:15.852Z,2.20
2019-01-18T11:41:15.604Z,2.10
2019-01-18T11:42:15.594Z,2.20
2019-01-18T11:43:15.702Z,2.10
2019-01-18T11:44:15.702Z,2.30
2019-01-18T11:45:15.864Z,2.10
2019-01-18T11:46:15.725Z,2.40
2019-01-18T11:47:15.469Z,2.50
2019-01-18T11:48:15.551Z,2.70
2019-01-18T11:49:15.497Z,2.30
2019-01-18T11:50:15.495Z,2.60
2019-01-18T11:51:15.580Z,2.40
2019-01-18T11:52:15.619Z,2.40
2019-01-18T11:53:15.454Z,2.40
2019-01-18T11:54:15.456Z,2.20
2019-01-18T11:55:15.522Z,2.70
2019-01-18T11:56:15.463Z,2.30
2019-01-18T11:57:15.392Z,2.30
2019-01-18T11:58:15.322Z,2.50
2019-01-18T11:59:15.351Z,2.60
2019-01-18T12:00:15.402Z,2.50
2019-01-18T12:01:15.408Z,2.20
2019-01-18T12:02:21.922Z,2.70
2019-01-18T12:03:16.656Z,2.60
2019-01-18T12:04:15.477Z,2.60
2019-01-18T12:05:15.381Z,2.90
2019-01-18T12:06:15.398Z,2.40
2019-01-18T12:07:15.375Z,2.40
2019-01-18T12:08:15.271Z,2.60
2019-01-18T12:09:15.253Z,2.30
2019-01-18T12:10:15.267Z,2.40
2019-01-18T12:11:15.247Z,2.60
2019-01-18T12:12:15.220Z,2.10
2019-01-18T12:13:15.217Z,2.60
2019-01-18T12:14:15.211Z,2.50
2019-01-18T12:15:15.194Z,2.50
2019-01-18T12:16:15.224Z,2.30
2019-01-18T12:17:15.137Z,2.70
2019-01-18T12:18:15.247Z,2.40
2019-01-18T12:19:15.189Z,2.60
2019-01-18T12:20:15.127Z,2.80
2019-01-18T12:21:15.313Z,2.50
2019-01-18T12:22:15.158Z,2.40
2019-01-18T12:23:15.100Z,2.50
2019-01-18T12:24:15.975Z,2.20
2019-01-18T12:25:15.080Z,2.20
2019-01-18T12:26:15.097Z,2.40
2019-01-18T12:27:15.058Z,2.50
2019-01-18T12:28:15.093Z,2.40
2019-01-18T12:29:15.057Z,2.50
2019-01-18T12:30:15.035Z,2.30
2019-01-18T12:31:15.024Z,2.20
2019-01-18T12:32:14.962Z,2.50
2019-01-18T12:33:15.049Z,2.00
2019-01-18T12:34:14.955Z,2.10
2019-01-18T12:35:14.956Z,2.40
2019-01-18T12:36:14.975Z,2.40
2019-01-18T12:37:22.490Z,2.20
2019-01-18T12:38:16.092Z,2.20
2019-01-18T12:39:14.854Z,2.00
2019-01-18T12:40:14.846Z,2.20
2019-01-18T12:41:14.839Z,2.00
2019-01-18T12:42:14.836Z,2.10
2019-01-18T12:43:14.848Z,2.00
2019-01-18T12:44:14.803Z,2.10
2019-01-18T12:45:14.793Z,2.10
2019-01-18T12:46:14.803Z,2.20
2019-01-18T12:47:14.769Z,1.90
2019-01-18T12:48:14.770Z,1.90
2019-01-18T12:49:14.778Z,2.00
2019-01-18T12:50:14.747Z,2.00
2019-01-18T12:51:14.748Z,1.90
2019-01-18T12:52:14.726Z,1.80
2019-01-18T12:53:14.723Z,2.10
2019-01-18T12:54:14.695Z,1.80
2019-01-18T12:55:14.693Z,1.50
2019-01-18T12:56:14.707Z,1.60
2019-01-18T12:57:14.665Z,1.50
2019-01-18T12:58:14.657Z,1.60
2019-01-18T12:59:14.660Z,1.70
2019-01-18T13:00:14.636Z,1.70
2019-01-18T13:01:14.647Z,1.80
2019-01-18T13:02:14.640Z,1.70
2019-01-18T13:03:14.604Z,1.60
2019-01-18T13:04:14.595Z,1.80
2019-01-18T13:05:14.595Z,1.60
2019-01-18T13:06:14.602Z,1.80
2019-01-18T13:07:14.566Z,1.70
2019-01-18T13:08:14.552Z,1.70
2019-01-18T13:09:14.538Z,1.80
2019-01-18T13:10:14.525Z,1.60
2019-01-18T13:11:14.523Z,1.70
2019-01-18T13:12:14.534Z,1.60
2019-01-18T13:13:14.552Z,1.50
2019-01-18T13:14:14.480Z,1.50
2019-01-18T13:15:14.471Z,1.60
2019-01-18T13:16:14.463Z,1.70
2019-01-18T13:17:14.482Z,1.70
2019-01-18T13:18:14.465Z,1.60